createdAt,value
2019-03-18T00:00:17.068Z,4.12
2019-03-18T00:02:46.791Z,4.07
2019-03-18T00:05:16.855Z,4.07
2019-03-18T00:07:44.510Z,4.06
2019-03-18T00:10:15.111Z,4.05
2019-03-18T00:12:42.640Z,3.97
2019-03-18T00:15:10.085Z,3.96
2019-03-18T00:17:37.576Z,4.00
2019-03-18T00:20:05.385Z,4.00
2019-03-18T00:22:33.060Z,3.92
2019-03-18T00:25:01.048Z,3.89
2019-03-18T00:27:30.125Z,3.87
2019-03-18T00:29:58.025Z,3.84
2019-03-18T00:32:25.690Z,3.99
2019-03-18T00:34:56.002Z,3.90
2019-03-18T00:37:23.678Z,3.85
2019-03-18T00:39:52.592Z,3.88
2019-03-18T00:42:27.205Z,3.83
2019-03-18T00:44:59.074Z,3.82
2019-03-18T00:47:38.400Z,3.90
2019-03-18T00:50:12.090Z,3.79
2019-03-18T00:52:44.579Z,3.94
2019-03-18T00:55:16.208Z,3.80
2019-03-18T00:57:43.650Z,3.83
2019-03-18T01:00:13.433Z,3.91
2019-03-18T01:02:42.352Z,3.90
2019-03-18T01:05:16.521Z,3.92
2019-03-18T01:08:21.625Z,3.78
2019-03-18T01:12:10.159Z,3.89
2019-03-18T01:15:27.828Z,3.84
2019-03-18T01:17:54.864Z,3.82
2019-03-18T01:20:26.140Z,3.83
2019-03-18T01:22:53.617Z,3.70
2019-03-18T01:25:23.254Z,3.84
2019-03-18T01:27:57.516Z,3.87
2019-03-18T01:30:25.775Z,3.87
2019-03-18T01:32:58.655Z,3.96
2019-03-18T01:35:26.312Z,4.06
2019-03-18T01:37:57.830Z,4.02
2019-03-18T01:40:25.295Z,3.98
2019-03-18T01:42:56.725Z,4.03
2019-03-18T01:45:40.577Z,4.03
2019-03-18T01:55:34.590Z,3.97
2019-03-18T01:59:04.875Z,4.12
2019-03-18T02:01:52.929Z,4.10
2019-03-18T02:04:38.315Z,3.99
2019-03-18T02:07:18.305Z,4.03
2019-03-18T02:10:06.504Z,4.05
2019-03-18T02:12:56.705Z,4.14
2019-03-18T02:15:36.512Z,4.13
2019-03-18T02:18:04.460Z,4.10
2019-03-18T02:20:32.204Z,4.18
2019-03-18T02:23:05.939Z,4.17
2019-03-18T02:25:46.136Z,4.24
2019-03-18T02:28:15.232Z,4.27
2019-03-18T02:30:43.085Z,4.35
2019-03-18T02:33:10.890Z,4.32
2019-03-18T02:35:57.169Z,4.44
2019-03-18T02:38:27.720Z,4.43
2019-03-18T02:41:37.312Z,4.50
2019-03-18T02:44:16.069Z,4.45
2019-03-18T02:47:00.278Z,4.41
2019-03-18T02:49:38.186Z,4.55
2019-03-18T02:55:21.259Z,4.65
2019-03-18T02:58:01.593Z,4.64
2019-03-18T03:00:36.632Z,4.63
2019-03-18T03:03:04.401Z,4.49
2019-03-18T03:05:32.162Z,4.39
2019-03-18T03:08:02.188Z,4.11
2019-03-18T03:10:29.566Z,4.02
2019-03-18T03:12:59.399Z,3.91
2019-03-18T03:15:30.325Z,3.86
2019-03-18T03:17:57.884Z,3.70
2019-03-18T03:20:25.345Z,3.59
2019-03-18T03:22:55.601Z,3.58
2019-03-18T03:25:24.922Z,3.55
2019-03-18T03:27:54.850Z,3.59
2019-03-18T03:30:22.411Z,3.48
2019-03-18T03:32:49.945Z,3.48
2019-03-18T03:35:17.351Z,3.60
2019-03-18T03:37:44.888Z,3.53
2019-03-18T03:40:12.541Z,3.62
2019-03-18T03:42:39.994Z,3.58
2019-03-18T03:45:07.399Z,3.68
2019-03-18T03:47:34.936Z,3.72
2019-03-18T03:50:02.360Z,3.70
2019-03-18T03:52:29.949Z,3.81
2019-03-18T03:54:58.925Z,3.89
2019-03-18T03:57:26.561Z,3.92
2019-03-18T03:59:55.691Z,3.76
2019-03-18T04:02:23.267Z,3.74
2019-03-18T04:04:50.815Z,3.81
2019-03-18T04:07:18.340Z,3.88
2019-03-18T04:09:45.757Z,3.92
2019-03-18T04:12:13.269Z,3.87
2019-03-18T04:14:40.761Z,3.84
2019-03-18T04:17:13.469Z,3.89
2019-03-18T04:19:47.488Z,3.88
2019-03-18T04:22:15.508Z,3.84
2019-03-18T04:24:45.654Z,3.94
2019-03-18T04:27:13.879Z,3.84
2019-03-18T04:29:41.633Z,3.96
2019-03-18T04:32:12.644Z,3.98
2019-03-18T04:34:40.583Z,4.03
2019-03-18T04:37:08.274Z,3.94
2019-03-18T04:39:35.735Z,4.03
2019-03-18T04:42:03.450Z,4.02
2019-03-18T04:44:31.231Z,4.07
2019-03-18T04:46:58.847Z,4.09
2019-03-18T04:49:26.305Z,4.04
2019-03-18T04:51:53.757Z,4.04
2019-03-18T04:54:21.343Z,4.07
2019-03-18T04:56:49.059Z,3.99
2019-03-18T04:59:16.526Z,4.11
2019-03-18T05:01:43.929Z,4.09
2019-03-18T05:04:13.525Z,4.11
2019-03-18T05:06:40.906Z,4.11
2019-03-18T05:09:08.490Z,4.21
2019-03-18T05:11:36.925Z,4.18
2019-03-18T05:14:04.348Z,4.18
2019-03-18T05:16:31.769Z,4.18
2019-03-18T05:18:59.315Z,4.16
2019-03-18T05:21:26.681Z,4.20
2019-03-18T05:23:54.122Z,4.18
2019-03-18T05:26:22.449Z,4.25
2019-03-18T05:28:50.136Z,4.13
2019-03-18T05:31:17.557Z,4.20
2019-03-18T05:33:45.021Z,4.17
2019-03-18T05:36:12.391Z,4.24
2019-03-18T05:38:39.915Z,4.24
2019-03-18T05:41:07.337Z,4.19
2019-03-18T05:43:34.751Z,4.24
2019-03-18T05:46:02.243Z,4.29
2019-03-18T05:48:31.242Z,4.25
2019-03-18T05:50:59.536Z,4.18
2019-03-18T05:53:26.998Z,4.29
2019-03-18T05:55:57.899Z,4.29
2019-03-18T05:58:26.628Z,4.41
2019-03-18T06:00:54.045Z,4.38
2019-03-18T06:03:21.540Z,4.37
2019-03-18T06:05:49.005Z,4.45
2019-03-18T06:08:16.766Z,4.44
2019-03-18T06:10:48.437Z,4.40
2019-03-18T06:13:17.494Z,4.38
2019-03-18T06:15:45.385Z,4.44
2019-03-18T06:18:12.911Z,4.47
2019-03-18T06:20:40.432Z,4.52
2019-03-18T06:23:07.957Z,4.41
2019-03-18T06:25:35.419Z,4.47
2019-03-18T06:28:06.150Z,4.60
2019-03-18T06:30:33.543Z,4.59
2019-03-18T06:33:01.092Z,4.58
2019-03-18T06:35:28.516Z,4.71
2019-03-18T06:37:56.100Z,4.79
2019-03-18T06:40:24.420Z,4.74
2019-03-18T06:42:52.136Z,4.64
2019-03-18T06:45:19.651Z,4.62
2019-03-18T06:47:47.214Z,4.77
2019-03-18T06:50:37.463Z,4.80
2019-03-18T06:52:52.761Z,4.92
2019-03-18T06:55:27.388Z,5.12
2019-03-18T06:57:57.752Z,4.97
2019-03-18T07:00:25.130Z,4.79
2019-03-18T07:02:52.540Z,4.54
2019-03-18T07:05:19.948Z,4.48
2019-03-18T07:07:47.341Z,4.60
2019-03-18T07:10:14.988Z,4.62
2019-03-18T07:12:42.435Z,4.60
2019-03-18T07:15:10.131Z,4.52
2019-03-18T07:17:37.611Z,4.70
2019-03-18T07:20:06.041Z,4.84
2019-03-18T07:22:42.077Z,4.90
2019-03-18T07:25:09.263Z,5.06
2019-03-18T07:27:36.675Z,5.09
2019-03-18T07:30:04.736Z,5.25
2019-03-18T07:32:32.110Z,5.22
2019-03-18T07:34:59.667Z,5.28
2019-03-18T07:37:27.150Z,5.33
2019-03-18T07:39:54.629Z,5.34
2019-03-18T07:42:22.070Z,5.37
2019-03-18T07:44:49.473Z,5.35
2019-03-18T07:47:33.114Z,5.30
2019-03-18T07:50:03.090Z,5.21
2019-03-18T07:52:30.483Z,5.13
2019-03-18T07:55:03.675Z,5.12
2019-03-18T07:57:32.692Z,5.27
2019-03-18T08:00:00.467Z,5.33
2019-03-18T08:02:27.825Z,5.42
2019-03-18T08:04:55.380Z,5.55
2019-03-18T08:07:22.845Z,5.65
2019-03-18T08:09:50.340Z,5.56
2019-03-18T08:12:18.111Z,5.95
2019-03-18T08:14:45.581Z,6.22
2019-03-18T08:17:15.224Z,6.50
2019-03-18T08:19:42.727Z,6.74
2019-03-18T08:22:10.971Z,7.06
2019-03-18T08:24:38.430Z,7.10
2019-03-18T08:27:05.961Z,7.32
2019-03-18T08:29:48.140Z,7.94
2019-03-18T08:33:01.401Z,7.98
2019-03-18T08:35:34.838Z,7.51
2019-03-18T08:38:19.171Z,7.23
2019-03-18T08:40:54.781Z,6.96
2019-03-18T08:43:24.250Z,6.74
2019-03-18T08:45:51.753Z,6.70
2019-03-18T08:48:20.753Z,6.73
2019-03-18T08:50:48.307Z,7.29
2019-03-18T08:53:15.701Z,7.74
2019-03-18T08:55:43.230Z,8.11
2019-03-18T08:58:10.834Z,8.35
2019-03-18T09:00:38.514Z,8.04
2019-03-18T09:03:05.994Z,8.00
2019-03-18T09:05:36.703Z,7.71
2019-03-18T09:08:07.952Z,8.27
2019-03-18T09:10:35.847Z,8.94
2019-03-18T09:13:10.875Z,9.19
2019-03-18T09:21:51.152Z,8.98
2019-03-18T09:24:18.812Z,8.49
2019-03-18T09:27:01.807Z,8.26
2019-03-18T09:29:25.693Z,8.08
2019-03-18T09:31:53.355Z,8.08
2019-03-18T09:34:21.072Z,8.02
2019-03-18T09:36:48.572Z,8.09
2019-03-18T09:39:16.156Z,7.68
2019-03-18T09:41:43.784Z,7.33
2019-03-18T09:44:11.392Z,7.22
2019-03-18T09:46:39.172Z,7.68
2019-03-18T09:52:09.365Z,8.07
2019-03-18T09:54:44.529Z,8.27
2019-03-18T09:58:19.791Z,8.42
2019-03-18T10:00:59.583Z,8.44
2019-03-18T10:03:34.171Z,8.58
2019-03-18T10:06:05.632Z,8.22
2019-03-18T10:08:33.992Z,7.86
2019-03-18T10:11:03.092Z,7.96
2019-03-18T10:13:30.852Z,7.92
2019-03-18T10:15:58.475Z,8.01
2019-03-18T10:18:26.038Z,8.13
2019-03-18T10:20:53.772Z,7.85
2019-03-18T10:23:21.542Z,7.83
2019-03-18T10:25:49.153Z,8.12
2019-03-18T10:28:16.776Z,8.00
2019-03-18T10:30:44.432Z,8.01
2019-03-18T10:33:11.953Z,8.07
2019-03-18T10:35:39.576Z,7.96
2019-03-18T10:38:07.074Z,8.07
2019-03-18T10:40:34.671Z,8.12
2019-03-18T10:43:02.393Z,8.19
2019-03-18T10:45:29.972Z,8.41
2019-03-18T10:47:57.451Z,8.50
2019-03-18T10:50:25.312Z,8.65
2019-03-18T10:52:53.139Z,8.38
2019-03-18T10:55:21.089Z,8.42
2019-03-18T10:57:48.833Z,8.62
2019-03-18T11:00:16.998Z,8.57
2019-03-18T11:02:45.518Z,8.33
2019-03-18T11:05:13.894Z,8.60
2019-03-18T11:07:41.498Z,8.96
2019-03-18T11:10:14.994Z,9.20
2019-03-18T11:12:42.656Z,9.85
2019-03-18T11:15:11.332Z,10.16
2019-03-18T11:17:39.136Z,10.36
2019-03-18T11:20:07.553Z,10.25
2019-03-18T11:22:35.171Z,9.92
2019-03-18T11:25:02.776Z,9.73
2019-03-18T11:27:30.395Z,9.63
2019-03-18T11:29:58.422Z,9.76
2019-03-18T11:32:26.011Z,9.48
2019-03-18T11:34:53.534Z,9.16
2019-03-18T11:37:21.112Z,9.19
2019-03-18T11:39:48.714Z,9.09
2019-03-18T11:42:16.273Z,8.45
2019-03-18T11:44:44.193Z,7.88
2019-03-18T11:47:16.311Z,7.62
2019-03-18T11:49:41.374Z,7.21
2019-03-18T11:52:08.973Z,6.97
2019-03-18T11:54:36.624Z,6.67
2019-03-18T11:57:04.473Z,6.76
2019-03-18T11:59:32.013Z,6.62
2019-03-18T12:01:59.553Z,6.66
2019-03-18T12:04:27.132Z,6.58
2019-03-18T12:06:54.735Z,6.84
2019-03-18T12:09:22.254Z,6.80
2019-03-18T12:11:49.892Z,6.95
2019-03-18T12:14:17.452Z,7.01
2019-03-18T12:16:45.052Z,7.21
2019-03-18T12:19:12.672Z,7.49
2019-03-18T12:21:40.292Z,7.65
2019-03-18T12:24:09.452Z,8.01
2019-03-18T12:26:37.170Z,8.14
2019-03-18T12:29:08.053Z,8.49
2019-03-18T12:31:35.812Z,8.66
2019-03-18T12:34:03.435Z,8.76
2019-03-18T12:36:31.039Z,8.68
2019-03-18T12:38:58.589Z,8.58
2019-03-18T12:41:26.195Z,8.53
2019-03-18T12:44:14.792Z,8.31
2019-03-18T12:46:42.355Z,8.41
2019-03-18T12:49:09.993Z,8.50
2019-03-18T12:52:32.131Z,8.52
2019-03-18T12:58:56.713Z,8.45
2019-03-18T13:01:29.783Z,8.37
2019-03-18T13:03:56.313Z,8.43
2019-03-18T13:06:23.894Z,8.82
2019-03-18T13:09:01.972Z,9.00
2019-03-18T13:11:30.632Z,9.00
2019-03-18T13:13:58.092Z,8.95
2019-03-18T13:16:25.753Z,9.10
2019-03-18T13:18:53.353Z,9.27
2019-03-18T13:21:20.912Z,8.89
2019-03-18T13:23:48.632Z,8.86
2019-03-18T13:26:16.504Z,8.97
2019-03-18T13:28:44.073Z,9.14
2019-03-18T13:31:13.511Z,8.97
2019-03-18T13:33:45.012Z,8.58
2019-03-18T13:36:12.853Z,8.05
2019-03-18T13:38:40.831Z,7.82
2019-03-18T13:41:08.292Z,7.91
2019-03-18T13:43:35.824Z,8.19
2019-03-18T13:46:03.730Z,8.32
2019-03-18T13:48:31.293Z,8.01
2019-03-18T13:50:58.872Z,7.92
2019-03-18T13:53:27.414Z,7.81
2019-03-18T13:55:55.137Z,8.08
2019-03-18T13:58:23.014Z,8.19
2019-03-18T14:00:50.631Z,8.42
2019-03-18T14:03:18.800Z,8.55
2019-03-18T14:05:46.373Z,8.36
2019-03-18T14:08:14.112Z,8.14
2019-03-18T14:10:42.411Z,8.03
2019-03-18T14:13:10.179Z,8.08
2019-03-18T14:15:37.715Z,8.06
2019-03-18T14:18:05.413Z,7.82
2019-03-18T14:20:34.932Z,8.09
2019-03-18T14:23:05.473Z,8.25
2019-03-18T14:25:33.015Z,8.22
2019-03-18T14:28:00.618Z,8.35
2019-03-18T14:30:28.531Z,8.49
2019-03-18T14:32:56.174Z,8.57
2019-03-18T14:35:23.813Z,8.56
2019-03-18T14:37:51.493Z,8.67
2019-03-18T14:40:19.157Z,8.61
2019-03-18T14:42:46.793Z,8.68
2019-03-18T14:45:18.813Z,8.83
2019-03-18T14:47:54.863Z,8.70
2019-03-18T14:50:22.895Z,8.54
2019-03-18T14:52:59.593Z,8.60
2019-03-18T14:55:27.213Z,8.55
2019-03-18T14:57:56.073Z,8.57
2019-03-18T15:00:26.684Z,8.48
2019-03-18T15:02:54.553Z,8.43
2019-03-18T15:05:22.514Z,8.50
2019-03-18T15:07:57.774Z,8.62
2019-03-18T15:11:34.811Z,8.55
2019-03-18T15:14:02.694Z,8.59
2019-03-18T15:16:34.274Z,8.58
2019-03-18T15:19:01.993Z,8.57
2019-03-18T15:21:29.533Z,8.56
2019-03-18T15:23:57.153Z,8.52
2019-03-18T15:26:25.013Z,8.41
2019-03-18T15:28:52.993Z,8.54
2019-03-18T15:31:20.802Z,8.46
2019-03-18T15:33:48.514Z,8.55
2019-03-18T15:36:16.185Z,8.61
2019-03-18T15:38:43.793Z,8.76
2019-03-18T15:41:11.422Z,8.84
2019-03-18T15:43:39.212Z,8.94
2019-03-18T15:46:06.932Z,8.86
2019-03-18T15:48:34.636Z,8.83
2019-03-18T15:51:02.825Z,8.57
2019-03-18T15:53:30.562Z,8.50
2019-03-18T15:55:58.287Z,8.45
2019-03-18T15:58:26.095Z,8.53
2019-03-18T16:00:54.041Z,8.65
2019-03-18T16:03:21.834Z,8.57
2019-03-18T16:05:50.093Z,8.59
2019-03-18T16:08:21.867Z,8.57
2019-03-18T16:11:07.763Z,8.65
2019-03-18T16:13:35.571Z,8.55
2019-03-18T16:16:03.477Z,8.63
2019-03-18T16:18:31.382Z,8.56
2019-03-18T16:21:38.347Z,8.52
2019-03-18T16:24:06.062Z,8.48
2019-03-18T16:26:34.007Z,8.46
2019-03-18T16:29:03.316Z,8.50
2019-03-18T16:31:31.162Z,8.54
2019-03-18T16:33:59.137Z,8.65
2019-03-18T16:36:27.110Z,8.62
2019-03-18T16:38:55.237Z,8.42
2019-03-18T16:41:23.055Z,8.42
2019-03-18T16:43:51.036Z,8.45
2019-03-18T16:46:18.772Z,8.44
2019-03-18T16:48:46.706Z,8.49
2019-03-18T16:51:14.737Z,8.37
2019-03-18T16:53:42.421Z,8.22
2019-03-18T16:56:10.149Z,8.13
2019-03-18T16:58:37.837Z,8.13
2019-03-18T17:01:05.771Z,7.99
2019-03-18T17:03:33.461Z,7.89
2019-03-18T17:06:01.235Z,7.83
2019-03-18T17:08:29.022Z,7.86
2019-03-18T17:10:56.848Z,7.76
2019-03-18T17:13:24.562Z,7.69
2019-03-18T17:15:52.852Z,7.56
2019-03-18T17:18:20.667Z,7.54
2019-03-18T17:20:48.512Z,7.40
2019-03-18T17:23:16.277Z,7.35
2019-03-18T17:25:44.130Z,7.27
2019-03-18T17:28:12.107Z,7.30
2019-03-18T17:30:39.797Z,7.17
2019-03-18T17:33:07.592Z,7.13
2019-03-18T17:35:35.532Z,7.06
2019-03-18T17:38:03.431Z,7.15
2019-03-18T17:40:31.287Z,7.19
2019-03-18T17:42:59.481Z,7.19
2019-03-18T17:45:28.243Z,7.13
2019-03-18T17:47:56.497Z,7.09
2019-03-18T17:50:24.692Z,7.05
2019-03-18T17:53:02.297Z,7.02
2019-03-18T17:55:23.279Z,6.99
2019-03-18T17:57:51.137Z,6.97
2019-03-18T18:00:22.532Z,6.89
2019-03-18T18:02:52.569Z,6.86
2019-03-18T18:05:20.166Z,6.83
2019-03-18T18:07:48.071Z,6.83
2019-03-18T18:10:16.427Z,6.79
2019-03-18T18:12:44.111Z,6.86
2019-03-18T18:15:12.059Z,6.77
2019-03-18T18:17:39.856Z,6.76
2019-03-18T18:20:07.901Z,6.79
2019-03-18T18:22:36.016Z,6.80
2019-03-18T18:25:09.653Z,6.62
2019-03-18T18:27:37.541Z,6.65
2019-03-18T18:30:06.207Z,6.64
2019-03-18T18:32:34.020Z,6.59
2019-03-18T18:35:03.206Z,6.56
2019-03-18T18:37:30.932Z,6.54
2019-03-18T18:39:58.662Z,6.47
2019-03-18T18:42:26.496Z,6.36
2019-03-18T18:44:54.526Z,6.34
2019-03-18T18:47:22.406Z,6.25
2019-03-18T18:49:50.296Z,6.23
2019-03-18T18:52:18.186Z,6.14
2019-03-18T18:54:45.967Z,6.09
2019-03-18T18:57:13.827Z,6.00
2019-03-18T18:59:42.136Z,5.97
2019-03-18T19:02:09.931Z,5.99
2019-03-18T19:04:37.637Z,5.96
2019-03-18T19:07:05.626Z,5.86
2019-03-18T19:09:33.444Z,5.90
2019-03-18T19:12:01.431Z,5.85
2019-03-18T19:14:29.351Z,5.82
2019-03-18T19:16:57.208Z,5.78
2019-03-18T19:19:25.357Z,5.77
2019-03-18T19:21:53.515Z,5.75
2019-03-18T19:24:21.409Z,5.69
2019-03-18T19:26:49.426Z,5.73
2019-03-18T19:29:17.311Z,5.72
2019-03-18T19:31:45.107Z,5.60
2019-03-18T19:34:21.217Z,5.59
2019-03-18T19:36:51.972Z,5.52
2019-03-18T19:39:19.934Z,5.48
2019-03-18T19:41:49.309Z,5.51
2019-03-18T19:44:17.219Z,5.52
2019-03-18T19:46:45.183Z,5.44
2019-03-18T19:49:15.172Z,5.46
2019-03-18T19:51:45.882Z,5.48
2019-03-18T19:54:13.697Z,5.46
2019-03-18T19:56:41.603Z,5.49
2019-03-18T19:59:09.616Z,5.46
2019-03-18T20:01:37.611Z,5.48
2019-03-18T20:04:06.115Z,5.45
2019-03-18T20:06:38.991Z,5.45
2019-03-18T20:09:08.370Z,5.40
2019-03-18T20:11:38.891Z,5.38
2019-03-18T20:14:43.039Z,5.40
2019-03-18T20:17:13.327Z,5.28
2019-03-18T20:19:41.400Z,5.34
2019-03-18T20:22:10.586Z,5.23
2019-03-18T20:25:16.138Z,5.22
2019-03-18T20:27:44.612Z,5.20
2019-03-18T20:30:16.374Z,5.14
2019-03-18T20:32:44.243Z,5.08
2019-03-18T20:35:12.911Z,5.02
2019-03-18T20:37:40.747Z,4.98
2019-03-18T20:40:10.458Z,4.88
2019-03-18T20:42:38.292Z,4.85
2019-03-18T20:46:30.211Z,4.78
2019-03-18T20:48:29.795Z,4.75
2019-03-18T20:51:05.221Z,4.69
2019-03-18T20:53:40.456Z,4.70
2019-03-18T20:56:08.227Z,4.70
2019-03-18T20:58:36.039Z,4.57
2019-03-18T21:01:04.291Z,4.54
2019-03-18T21:03:31.947Z,4.53
2019-03-18T21:05:59.816Z,4.49
2019-03-18T21:08:28.001Z,4.50
2019-03-18T21:10:55.779Z,4.51
2019-03-18T21:13:23.696Z,4.50
2019-03-18T21:15:51.514Z,4.46
2019-03-18T21:18:19.391Z,4.43
2019-03-18T21:20:47.336Z,4.43
2019-03-18T21:23:18.511Z,4.47
2019-03-18T21:25:46.187Z,4.39
2019-03-18T21:28:16.640Z,4.38
2019-03-18T21:30:44.339Z,4.42
2019-03-18T21:33:12.433Z,4.43
2019-03-18T21:35:46.011Z,4.40
2019-03-18T21:38:20.607Z,4.37
2019-03-18T21:40:53.514Z,4.37
2019-03-18T21:43:21.191Z,4.34
2019-03-18T21:45:48.884Z,4.30
2019-03-18T21:48:17.032Z,4.36
2019-03-18T21:50:44.694Z,4.27
2019-03-18T21:53:12.463Z,4.30
2019-03-18T21:55:40.159Z,4.30
2019-03-18T21:58:07.736Z,4.25
2019-03-18T22:00:35.251Z,4.22
2019-03-18T22:03:02.718Z,4.20
2019-03-18T22:05:30.145Z,4.18
2019-03-18T22:07:57.571Z,4.20
2019-03-18T22:10:24.968Z,4.16
2019-03-18T22:12:52.376Z,4.16
2019-03-18T22:15:19.732Z,4.12
2019-03-18T22:17:47.134Z,4.15
2019-03-18T22:20:14.635Z,4.16
2019-03-18T22:22:42.151Z,4.12
2019-03-18T22:25:09.871Z,4.11
2019-03-18T22:27:37.301Z,4.13
2019-03-18T22:30:04.946Z,4.09
2019-03-18T22:32:32.351Z,4.04
2019-03-18T22:34:59.737Z,4.05
2019-03-18T22:37:27.170Z,4.05
2019-03-18T22:39:54.576Z,4.08
2019-03-18T22:42:21.991Z,4.07
2019-03-18T22:44:49.371Z,4.06
2019-03-18T22:47:16.803Z,3.96
2019-03-18T22:49:44.205Z,3.89
2019-03-18T22:52:11.573Z,3.94
2019-03-18T22:54:38.987Z,3.99
2019-03-18T22:57:06.476Z,3.97
2019-03-18T22:59:33.881Z,3.97
2019-03-18T23:02:01.236Z,3.99
2019-03-18T23:04:28.656Z,3.90
2019-03-18T23:06:56.112Z,3.89
2019-03-18T23:09:23.567Z,3.86
2019-03-18T23:11:50.949Z,3.80
2019-03-18T23:14:18.346Z,3.83
2019-03-18T23:16:45.906Z,3.78
2019-03-18T23:19:13.382Z,3.73
2019-03-18T23:21:40.739Z,3.65
2019-03-18T23:24:08.667Z,3.65
2019-03-18T23:26:36.058Z,3.63
2019-03-18T23:29:04.674Z,3.68
2019-03-18T23:31:32.032Z,3.70
2019-03-18T23:33:59.475Z,3.65
2019-03-18T23:36:27.451Z,3.63
2019-03-18T23:38:57.231Z,3.64
2019-03-18T23:41:30.302Z,3.66
2019-03-18T23:43:58.177Z,3.57
2019-03-18T23:46:29.912Z,3.66
2019-03-18T23:48:58.556Z,3.62
2019-03-18T23:51:25.951Z,3.59
2019-03-18T23:53:53.817Z,3.60
2019-03-18T23:56:28.001Z,3.56
2019-03-18T23:58:55.457Z,3.56
